createdAt,value
2018-08-11T00:00:51.794Z,101202.84
2018-08-11T00:03:20.308Z,101201.27
2018-08-11T00:05:48.801Z,101190.28
2018-08-11T00:08:17.376Z,101193.02
2018-08-11T00:10:45.908Z,101198.67
2018-08-11T00:13:14.467Z,101202.30
2018-08-11T00:15:42.967Z,101201.04
2018-08-11T00:18:11.548Z,101201.40
2018-08-11T00:20:40.051Z,101202.19
2018-08-11T00:23:08.546Z,101196.76
2018-08-11T00:25:37.105Z,101190.89
2018-08-11T00:28:05.708Z,101195.12
2018-08-11T00:30:34.165Z,101193.84
2018-08-11T00:33:02.700Z,101189.27
2018-08-11T00:35:31.229Z,101185.07
2018-08-11T00:37:59.821Z,101165.41
2018-08-11T00:40:28.569Z,101163.05
2018-08-11T00:42:57.073Z,101167.59
2018-08-11T00:45:25.698Z,101159.39
2018-08-11T00:47:54.277Z,101157.86
2018-08-11T00:50:25.843Z,101151.16
2018-08-11T00:52:54.557Z,101134.89
2018-08-11T00:55:23.083Z,101129.27
2018-08-11T00:57:51.572Z,101136.81
2018-08-11T01:00:20.564Z,101132.22
2018-08-11T01:02:49.092Z,101145.19
2018-08-11T01:05:18.986Z,101144.38
2018-08-11T01:07:47.907Z,101135.77
2018-08-11T01:10:16.872Z,101123.80
2018-08-11T01:12:46.341Z,101137.07
2018-08-11T01:15:18.724Z,101130.83
2018-08-11T01:17:47.911Z,101132.16
2018-08-11T01:20:16.797Z,101132.38
2018-08-11T01:22:46.169Z,101143.72
2018-08-11T01:25:15.030Z,101145.94
2018-08-11T01:27:43.572Z,101148.17
2018-08-11T01:30:15.408Z,101151.44
2018-08-11T01:32:44.236Z,101147.72
2018-08-11T01:35:13.001Z,101139.84
2018-08-11T01:37:42.468Z,101153.03
2018-08-11T01:40:12.297Z,101152.10
2018-08-11T01:42:41.964Z,101153.80
2018-08-11T01:45:11.507Z,101155.66
2018-08-11T01:47:40.598Z,101150.95
2018-08-11T01:50:10.727Z,101148.29
2018-08-11T01:52:40.277Z,101158.87
2018-08-11T01:55:10.999Z,101159.39
2018-08-11T01:57:39.666Z,101158.63
2018-08-11T02:00:10.134Z,101160.80
2018-08-11T02:02:38.851Z,101169.19
2018-08-11T02:05:07.884Z,101171.85
2018-08-11T02:07:36.818Z,101168.97
2018-08-11T02:10:07.095Z,101171.96
2018-08-11T02:12:35.664Z,101167.55
2018-08-11T02:15:05.105Z,101167.38
2018-08-11T02:17:33.581Z,101173.35
2018-08-11T02:20:02.126Z,101175.25
2018-08-11T02:22:30.634Z,101172.26
2018-08-11T02:24:59.168Z,101181.02
2018-08-11T02:27:27.762Z,101179.82
2018-08-11T02:29:56.286Z,101175.66
2018-08-11T02:32:24.803Z,101182.73
2018-08-11T02:34:53.313Z,101181.76
2018-08-11T02:37:21.837Z,101177.45
2018-08-11T02:39:50.362Z,101184.45
2018-08-11T02:42:18.912Z,101185.83
2018-08-11T02:44:47.405Z,101176.18
2018-08-11T02:47:15.875Z,101178.05
2018-08-11T02:49:44.405Z,101174.90
2018-08-11T02:52:12.868Z,101176.88
2018-08-11T02:54:41.465Z,101173.03
2018-08-11T02:57:09.953Z,101173.56
2018-08-11T02:59:38.389Z,101172.42
2018-08-11T03:02:06.887Z,101174.71
2018-08-11T03:04:35.349Z,101177.55
2018-08-11T03:07:04.135Z,101185.42
2018-08-11T03:09:32.610Z,101189.09
2018-08-11T03:12:01.072Z,101186.75
2018-08-11T03:14:29.600Z,101188.08
2018-08-11T03:16:58.116Z,101180.23
2018-08-11T03:19:26.662Z,101189.64
2018-08-11T03:21:55.281Z,101193.33
2018-08-11T03:24:23.773Z,101196.55
2018-08-11T03:26:52.272Z,101199.55
2018-08-11T03:29:20.748Z,101192.77
2018-08-11T03:31:49.201Z,101205.37
2018-08-11T03:34:17.713Z,101207.38
2018-08-11T03:36:46.179Z,101202.76
2018-08-11T03:39:14.750Z,101203.63
2018-08-11T03:41:43.248Z,101201.05
2018-08-11T03:44:12.362Z,101202.49
2018-08-11T03:46:40.912Z,101204.00
2018-08-11T03:49:10.857Z,101212.91
2018-08-11T03:51:39.332Z,101209.80
2018-08-11T03:54:07.849Z,101211.09
2018-08-11T03:56:36.351Z,101214.80
2018-08-11T03:59:04.857Z,101217.16
2018-08-11T04:01:33.316Z,101211.53
2018-08-11T04:04:01.842Z,101208.58
2018-08-11T04:06:30.543Z,101218.03
2018-08-11T04:09:04.114Z,101211.19
2018-08-11T04:11:35.578Z,101210.61
2018-08-11T04:14:04.944Z,101220.89
2018-08-11T04:16:33.418Z,101226.86
2018-08-11T04:19:01.909Z,101216.83
2018-08-11T04:21:30.417Z,101232.43
2018-08-11T04:23:58.990Z,101245.33
2018-08-11T04:26:27.666Z,101239.73
2018-08-11T04:28:56.274Z,101251.61
2018-08-11T04:32:53.946Z,101246.69
2018-08-11T04:35:22.470Z,101255.39
2018-08-11T04:37:51.076Z,101262.48
2018-08-11T04:40:19.575Z,101264.60
2018-08-11T04:42:48.061Z,101258.38
2018-08-11T04:45:16.561Z,101258.75
2018-08-11T04:47:45.132Z,101256.11
2018-08-11T04:50:13.597Z,101261.73
2018-08-11T04:52:42.444Z,101252.73
2018-08-11T04:55:10.946Z,101247.67
2018-08-11T04:57:39.455Z,101250.71
2018-08-11T05:00:08.310Z,101249.99
2018-08-11T05:02:36.816Z,101250.19
2018-08-11T05:05:06.353Z,101253.02
2018-08-11T05:07:34.792Z,101247.36
2018-08-11T05:10:03.318Z,101247.39
2018-08-11T05:12:31.812Z,101264.55
2018-08-11T05:15:00.337Z,101261.80
2018-08-11T05:17:28.897Z,101266.09
2018-08-11T05:19:57.430Z,101270.61
2018-08-11T05:22:25.917Z,101261.72
2018-08-11T05:24:54.460Z,101267.33
2018-08-11T05:27:22.900Z,101268.47
2018-08-11T05:29:51.421Z,101264.78
2018-08-11T05:32:19.957Z,101264.96
2018-08-11T05:34:48.485Z,101263.58
2018-08-11T05:37:16.981Z,101272.61
2018-08-11T05:39:45.456Z,101273.55
2018-08-11T05:42:13.959Z,101270.17
2018-08-11T05:44:42.481Z,101259.98
2018-08-11T05:47:11.021Z,101267.80
2018-08-11T05:49:39.513Z,101274.82
2018-08-11T05:52:08.031Z,101276.33
2018-08-11T05:54:36.496Z,101276.78
2018-08-11T05:57:05.117Z,101284.45
2018-08-11T05:59:33.589Z,101299.04
2018-08-11T06:02:02.153Z,101303.00
2018-08-11T06:04:30.617Z,101310.64
2018-08-11T06:06:59.129Z,101298.96
2018-08-11T06:09:27.654Z,101306.64
2018-08-11T06:11:56.136Z,101307.09
2018-08-11T06:14:24.684Z,101311.31
2018-08-11T06:16:53.164Z,101305.14
2018-08-11T06:19:21.666Z,101303.67
2018-08-11T06:21:50.135Z,101310.48
2018-08-11T06:24:18.609Z,101324.66
2018-08-11T06:26:47.084Z,101308.08
2018-08-11T06:29:15.593Z,101316.77
2018-08-11T06:31:44.172Z,101299.19
2018-08-11T06:34:12.712Z,101306.50
2018-08-11T06:36:41.195Z,101309.44
2018-08-11T06:39:12.322Z,101310.48
2018-08-11T06:41:40.900Z,101312.48
2018-08-11T06:44:09.701Z,101303.88
2018-08-11T06:46:38.269Z,101310.97
2018-08-11T06:49:07.037Z,101314.66
2018-08-11T06:51:35.564Z,101315.77
2018-08-11T06:54:04.240Z,101323.55
2018-08-11T06:56:32.714Z,101328.45
2018-08-11T06:59:01.261Z,101333.49
2018-08-11T07:01:29.738Z,101337.34
2018-08-11T07:03:58.265Z,101343.75
2018-08-11T07:06:26.786Z,101344.38
2018-08-11T07:08:55.324Z,101346.80
2018-08-11T07:11:23.815Z,101335.05
2018-08-11T07:13:52.706Z,101341.48
2018-08-11T07:16:21.374Z,101347.83
2018-08-11T07:18:49.878Z,101352.16
2018-08-11T07:21:18.406Z,101347.02
2018-08-11T07:23:46.899Z,101345.67
2018-08-11T07:26:15.372Z,101354.92
2018-08-11T07:28:43.932Z,101360.03
2018-08-11T07:31:12.413Z,101360.64
2018-08-11T07:33:40.870Z,101361.88
2018-08-11T07:36:09.427Z,101361.55
2018-08-11T07:38:37.925Z,101371.42
2018-08-11T07:41:07.264Z,101371.18
2018-08-11T07:43:35.796Z,101359.98
2018-08-11T07:46:04.340Z,101366.52
2018-08-11T07:48:32.855Z,101361.23
2018-08-11T07:51:01.382Z,101365.50
2018-08-11T07:53:30.033Z,101371.14
2018-08-11T07:55:58.618Z,101372.23
2018-08-11T07:58:27.103Z,101374.45
2018-08-11T08:00:55.589Z,101376.07
2018-08-11T08:03:24.144Z,101375.11
2018-08-11T08:05:52.593Z,101372.49
2018-08-11T08:08:21.297Z,101372.78
2018-08-11T08:10:49.826Z,101372.28
2018-08-11T08:13:18.481Z,101379.86
2018-08-11T08:15:47.046Z,101378.16
2018-08-11T08:18:15.687Z,101390.75
2018-08-11T08:20:44.233Z,101380.58
2018-08-11T08:23:12.700Z,101384.09
2018-08-11T08:25:41.177Z,101387.87
2018-08-11T08:28:10.588Z,101387.90
2018-08-11T08:30:39.067Z,101387.96
2018-08-11T08:33:07.560Z,101393.34
2018-08-11T08:35:36.033Z,101382.87
2018-08-11T08:38:04.554Z,101381.70
2018-08-11T08:40:33.008Z,101388.30
2018-08-11T08:43:01.533Z,101380.95
2018-08-11T08:45:30.021Z,101386.32
2018-08-11T08:47:58.610Z,101390.55
2018-08-11T08:50:27.214Z,101385.57
2018-08-11T08:52:55.752Z,101390.47
2018-08-11T08:55:24.301Z,101400.13
2018-08-11T08:57:52.814Z,101402.16
2018-08-11T09:00:21.276Z,101392.36
2018-08-11T09:02:49.772Z,101400.19
2018-08-11T09:05:18.282Z,101397.29
2018-08-11T09:07:46.795Z,101408.85
2018-08-11T09:10:15.266Z,101397.61
2018-08-11T09:12:43.777Z,101396.06
2018-08-11T09:15:12.261Z,101400.63
2018-08-11T09:17:40.805Z,101400.44
2018-08-11T09:20:09.280Z,101397.42
2018-08-11T09:22:37.869Z,101407.73
2018-08-11T09:25:06.408Z,101412.38
2018-08-11T09:27:35.025Z,101414.05
2018-08-11T09:30:03.567Z,101417.34
2018-08-11T09:32:32.033Z,101407.73
2018-08-11T09:35:00.528Z,101416.29
2018-08-11T09:37:29.019Z,101410.70
2018-08-11T09:39:57.508Z,101415.54
2018-08-11T09:49:25.551Z,101461.33
2018-08-11T09:51:54.022Z,101453.95
2018-08-11T09:54:22.548Z,101457.05
2018-08-11T09:56:51.029Z,101458.05
2018-08-11T09:59:19.565Z,101459.10
2018-08-11T10:01:52.265Z,101453.67
2018-08-11T10:04:20.772Z,101469.45
2018-08-11T10:06:49.325Z,101458.52
2018-08-11T10:09:17.825Z,101451.66
2018-08-11T10:11:46.309Z,101447.86
2018-08-11T10:14:20.074Z,101438.36
2018-08-11T10:16:48.693Z,101438.98
2018-08-11T10:19:17.653Z,101431.11
2018-08-11T10:21:46.144Z,101436.44
2018-08-11T10:24:14.631Z,101419.99
2018-08-11T10:26:43.142Z,101417.34
2018-08-11T10:29:11.680Z,101431.53
2018-08-11T10:31:40.152Z,101429.38
2018-08-11T10:34:08.637Z,101440.63
2018-08-11T10:36:37.206Z,101444.98
2018-08-11T10:39:08.821Z,101441.72
2018-08-11T10:41:38.504Z,101454.43
2018-08-11T10:44:07.064Z,101453.39
2018-08-11T10:46:35.556Z,101450.73
2018-08-11T10:49:04.490Z,101451.06
2018-08-11T10:51:33.317Z,101443.86
2018-08-11T10:54:01.950Z,101437.06
2018-08-11T10:56:30.437Z,101430.69
2018-08-11T10:58:58.988Z,101453.20
2018-08-11T11:01:27.525Z,101450.27
2018-08-11T11:03:56.052Z,101459.09
2018-08-11T11:06:24.581Z,101456.84
2018-08-11T11:08:53.061Z,101457.09
2018-08-11T11:11:21.553Z,101459.87
2018-08-11T11:13:50.005Z,101458.58
2018-08-11T11:16:18.580Z,101450.85
2018-08-11T11:18:47.070Z,101450.00
2018-08-11T11:21:15.593Z,101450.50
2018-08-11T11:23:44.099Z,101439.77
2018-08-11T11:26:12.627Z,101438.37
2018-08-11T11:28:41.113Z,101436.44
2018-08-11T11:31:09.602Z,101441.06
2018-08-11T11:33:38.088Z,101448.14
2018-08-11T11:36:06.642Z,101448.50
2018-08-11T11:38:36.102Z,101441.53
2018-08-11T11:41:04.594Z,101445.19
2018-08-11T11:43:33.095Z,101450.06
2018-08-11T11:46:01.642Z,101446.49
2018-08-11T11:48:30.421Z,101458.19
2018-08-11T11:50:59.020Z,101450.70
2018-08-11T11:53:27.577Z,101449.03
2018-08-11T11:55:56.428Z,101440.97
2018-08-11T11:58:24.946Z,101438.80
2018-08-11T12:00:53.445Z,101442.69
2018-08-11T12:03:22.248Z,101448.53
2018-08-11T12:05:50.740Z,101439.66
2018-08-11T12:08:19.244Z,101444.03
2018-08-11T12:10:47.803Z,101440.00
2018-08-11T12:13:16.265Z,101440.80
2018-08-11T12:15:44.733Z,101453.11
2018-08-11T12:18:13.200Z,101438.33
2018-08-11T12:20:41.694Z,101429.93
2018-08-11T12:23:10.226Z,101434.87
2018-08-11T12:25:38.680Z,101427.05
2018-08-11T12:28:07.308Z,101432.48
2018-08-11T12:30:35.851Z,101428.12
2018-08-11T12:33:04.339Z,101434.13
2018-08-11T12:35:32.852Z,101430.05
2018-08-11T12:38:01.390Z,101433.50
2018-08-11T12:40:29.986Z,101418.62
2018-08-11T12:42:58.457Z,101429.69
2018-08-11T12:45:26.941Z,101424.53
2018-08-11T12:47:55.518Z,101424.98
2018-08-11T12:50:24.193Z,101432.52
2018-08-11T12:52:52.721Z,101434.44
2018-08-11T12:55:21.226Z,101441.97
2018-08-11T12:57:49.739Z,101446.68
2018-08-11T13:00:18.248Z,101458.59
2018-08-11T13:02:46.757Z,101453.70
2018-08-11T13:05:15.316Z,101452.53
2018-08-11T13:07:43.945Z,101442.84
2018-08-11T13:10:12.463Z,101442.56
2018-08-11T13:12:41.049Z,101452.67
2018-08-11T13:15:09.663Z,101453.14
2018-08-11T13:17:38.157Z,101438.59
2018-08-11T13:20:07.554Z,101447.55
2018-08-11T13:22:36.437Z,101441.11
2018-08-11T13:25:04.965Z,101448.12
2018-08-11T13:27:33.566Z,101456.25
2018-08-11T13:30:02.425Z,101448.73
2018-08-11T13:32:30.940Z,101452.78
2018-08-11T13:34:59.437Z,101445.97
2018-08-11T13:37:27.910Z,101458.44
2018-08-11T13:39:56.392Z,101464.83
2018-08-11T13:42:24.918Z,101444.58
2018-08-11T13:44:53.454Z,101453.99
2018-08-11T13:47:21.991Z,101443.80
2018-08-11T13:49:50.644Z,101447.37
2018-08-11T13:52:19.136Z,101456.38
2018-08-11T13:54:47.626Z,101454.04
2018-08-11T13:57:16.140Z,101455.81
2018-08-11T13:59:44.651Z,101455.91
2018-08-11T14:02:13.128Z,101460.48
2018-08-11T14:04:41.705Z,101458.72
2018-08-11T14:07:10.233Z,101461.65
2018-08-11T14:09:38.753Z,101446.50
2018-08-11T14:12:07.274Z,101449.27
2018-08-11T14:14:35.772Z,101449.39
2018-08-11T14:17:04.377Z,101450.48
2018-08-11T14:19:32.994Z,101447.88
2018-08-11T14:22:01.463Z,101446.05
2018-08-11T14:24:30.027Z,101445.77
2018-08-11T14:26:58.529Z,101446.45
2018-08-11T14:29:27.029Z,101442.16
2018-08-11T14:31:55.665Z,101440.87
2018-08-11T14:34:24.152Z,101432.70
2018-08-11T14:36:52.762Z,101438.84
2018-08-11T14:39:21.313Z,101436.22
2018-08-11T14:41:49.932Z,101442.52
2018-08-11T14:44:18.465Z,101435.14
2018-08-11T14:46:46.975Z,101442.12
2018-08-11T14:49:15.661Z,101443.83
2018-08-11T14:51:44.134Z,101449.91
2018-08-11T14:54:13.229Z,101450.92
2018-08-11T14:56:41.711Z,101447.22
2018-08-11T14:59:10.190Z,101436.39
2018-08-11T15:01:38.878Z,101445.69
2018-08-11T15:04:07.373Z,101439.66
2018-08-11T15:06:36.076Z,101448.35
2018-08-11T15:09:07.154Z,101443.89
2018-08-11T15:11:35.684Z,101448.91
2018-08-11T15:14:04.444Z,101443.23
2018-08-11T15:16:32.901Z,101436.80
2018-08-11T15:19:01.421Z,101442.75
2018-08-11T15:21:29.909Z,101439.96
2018-08-11T15:23:58.448Z,101432.02
2018-08-11T15:26:26.980Z,101439.21
2018-08-11T15:28:55.513Z,101436.05
2018-08-11T15:31:24.028Z,101438.35
2018-08-11T15:33:52.565Z,101434.59
2018-08-11T15:36:21.123Z,101441.91
2018-08-11T15:38:49.570Z,101440.45
2018-08-11T15:41:18.057Z,101446.39
2018-08-11T15:43:46.588Z,101446.34
2018-08-11T15:46:15.072Z,101439.25
2018-08-11T15:48:43.985Z,101441.78
2018-08-11T15:51:12.487Z,101452.17
2018-08-11T15:53:40.969Z,101452.88
2018-08-11T15:56:09.468Z,101447.45
2018-08-11T15:58:40.915Z,101449.48
2018-08-11T16:01:09.535Z,101444.85
2018-08-11T16:03:38.018Z,101449.88
2018-08-11T16:06:06.872Z,101458.61
2018-08-11T16:08:35.377Z,101461.91
2018-08-11T16:11:03.888Z,101459.05
2018-08-11T16:13:32.377Z,101451.42
2018-08-11T16:16:00.871Z,101447.83
2018-08-11T16:18:29.378Z,101445.62
2018-08-11T16:20:57.953Z,101444.82
2018-08-11T16:23:26.494Z,101456.44
2018-08-11T16:25:55.101Z,101457.27
2018-08-11T16:28:23.568Z,101457.84
2018-08-11T16:30:52.054Z,101463.15
2018-08-11T16:33:20.728Z,101460.33
2018-08-11T16:35:49.210Z,101469.41
2018-08-11T16:38:17.730Z,101465.90
2018-08-11T16:40:46.284Z,101461.00
2018-08-11T16:43:14.783Z,101462.66
2018-08-11T16:45:43.310Z,101464.16
2018-08-11T16:48:11.860Z,101466.75
2018-08-11T16:50:40.358Z,101467.14
2018-08-11T16:53:08.901Z,101468.47
2018-08-11T16:55:37.524Z,101466.77
2018-08-11T16:58:06.436Z,101462.99
2018-08-11T17:00:35.253Z,101470.55
2018-08-11T17:03:03.725Z,101476.41
2018-08-11T17:05:32.188Z,101473.47
2018-08-11T17:08:00.672Z,101465.58
2018-08-11T17:10:29.178Z,101464.94
2018-08-11T17:12:57.648Z,101455.44
2018-08-11T17:15:26.092Z,101459.66
2018-08-11T17:17:54.633Z,101459.27
2018-08-11T17:20:23.189Z,101465.93
2018-08-11T17:22:51.681Z,101470.80
2018-08-11T17:25:20.181Z,101459.23
2018-08-11T17:27:48.678Z,101468.03
2018-08-11T17:30:17.176Z,101460.41
2018-08-11T17:32:46.099Z,101461.52
2018-08-11T17:35:14.597Z,101461.80
2018-08-11T17:37:43.093Z,101456.59
2018-08-11T17:40:11.687Z,101457.81
2018-08-11T17:42:40.176Z,101459.03
2018-08-11T17:45:09.496Z,101457.53
2018-08-11T17:47:40.546Z,101451.91
2018-08-11T17:50:09.904Z,101456.57
2018-08-11T17:52:39.419Z,101451.36
2018-08-11T17:55:10.236Z,101452.87
2018-08-11T17:57:39.852Z,101455.11
2018-08-11T18:00:10.740Z,101454.37
2018-08-11T18:02:41.854Z,101456.80
2018-08-11T18:05:10.409Z,101453.70
2018-08-11T18:07:39.578Z,101451.16
2018-08-11T18:10:09.905Z,101455.66
2018-08-11T18:12:38.537Z,101463.89
2018-08-11T18:15:07.061Z,101455.20
2018-08-11T18:17:35.872Z,101458.05
2018-08-11T18:20:04.469Z,101455.60
2018-08-11T18:22:32.931Z,101460.23
2018-08-11T18:25:01.414Z,101456.18
2018-08-11T18:27:29.916Z,101458.48
2018-08-11T18:29:58.453Z,101462.64
2018-08-11T18:32:26.990Z,101459.12
2018-08-11T18:34:55.597Z,101453.75
2018-08-11T18:37:24.147Z,101456.85
2018-08-11T18:39:52.627Z,101453.56
2018-08-11T18:42:21.353Z,101457.92
2018-08-11T18:44:49.824Z,101457.22
2018-08-11T18:47:18.296Z,101464.78
2018-08-11T18:49:46.850Z,101468.38
2018-08-11T18:52:15.430Z,101457.41
2018-08-11T18:54:44.053Z,101466.41
2018-08-11T18:57:12.688Z,101467.64
2018-08-11T18:59:41.238Z,101469.92
2018-08-11T19:02:16.446Z,101472.36
2018-08-11T19:04:44.955Z,101481.83
2018-08-11T19:07:13.488Z,101476.19
2018-08-11T19:09:41.972Z,101488.22
2018-08-11T19:12:10.471Z,101489.86
2018-08-11T19:14:39.084Z,101499.94
2018-08-11T19:17:07.573Z,101499.84
2018-08-11T19:19:36.134Z,101492.27
2018-08-11T19:22:04.963Z,101491.50
2018-08-11T19:24:33.498Z,101492.62
2018-08-11T19:27:02.053Z,101499.17
2018-08-11T19:29:30.649Z,101492.30
2018-08-11T19:31:59.168Z,101501.41
2018-08-11T19:34:27.664Z,101491.66
2018-08-11T19:36:56.518Z,101496.06
2018-08-11T19:39:25.017Z,101487.64
2018-08-11T19:41:53.561Z,101492.86
2018-08-11T19:44:22.037Z,101493.67
2018-08-11T19:46:50.561Z,101489.89
2018-08-11T19:49:19.126Z,101488.21
2018-08-11T19:51:47.691Z,101491.08
2018-08-11T19:54:16.353Z,101485.30
2018-08-11T19:56:44.834Z,101490.20
2018-08-11T19:59:13.406Z,101486.95
2018-08-11T20:01:41.975Z,101490.41
2018-08-11T20:04:13.394Z,101488.98
2018-08-11T20:06:42.764Z,101479.36
2018-08-11T20:09:12.157Z,101479.84
2018-08-11T20:11:40.710Z,101485.80
2018-08-11T20:14:09.390Z,101485.56
2018-08-11T20:16:38.197Z,101483.38
2018-08-11T20:19:06.994Z,101481.42
2018-08-11T20:21:35.449Z,101474.13
2018-08-11T20:24:03.932Z,101472.03
2018-08-11T20:26:32.425Z,101474.28
2018-08-11T20:29:00.981Z,101470.54
2018-08-11T20:31:29.509Z,101466.72
2018-08-11T20:33:58.025Z,101468.95
2018-08-11T20:36:26.753Z,101463.89
2018-08-11T20:38:55.240Z,101468.02
2018-08-11T20:41:23.773Z,101471.10
2018-08-11T20:43:52.304Z,101468.13
2018-08-11T20:46:20.893Z,101468.52
2018-08-11T20:48:49.501Z,101464.44
2018-08-11T20:51:18.046Z,101466.66
2018-08-11T20:53:46.586Z,101463.87
2018-08-11T20:56:15.129Z,101466.15
2018-08-11T20:58:43.675Z,101464.88
2018-08-11T21:01:12.272Z,101461.28
2018-08-11T21:03:40.930Z,101455.71
2018-08-11T21:06:09.478Z,101452.61
2018-08-11T21:08:38.046Z,101449.50
2018-08-11T21:11:06.628Z,101457.22
2018-08-11T21:13:35.138Z,101452.98
2018-08-11T21:16:03.662Z,101454.05
2018-08-11T21:18:32.241Z,101456.45
2018-08-11T21:21:01.113Z,101457.52
2018-08-11T21:23:30.209Z,101449.34
2018-08-11T21:25:58.830Z,101447.61
2018-08-11T21:28:27.424Z,101443.41
2018-08-11T21:30:55.913Z,101446.56
2018-08-11T21:33:24.502Z,101441.62
2018-08-11T21:35:53.053Z,101435.00
2018-08-11T21:38:21.582Z,101438.71
2018-08-11T21:40:50.021Z,101429.31
2018-08-11T21:43:18.532Z,101428.70
2018-08-11T21:45:47.057Z,101432.80
2018-08-11T21:48:15.577Z,101433.50
2018-08-11T21:50:44.135Z,101432.36
2018-08-11T21:53:12.618Z,101434.64
2018-08-11T21:55:41.597Z,101422.92
2018-08-11T21:58:10.125Z,101422.92
2018-08-11T22:00:38.959Z,101417.81
2018-08-11T22:03:09.121Z,101421.82
2018-08-11T22:05:37.678Z,101417.23
2018-08-11T22:08:06.253Z,101418.19
2018-08-11T22:10:34.801Z,101419.73
2018-08-11T22:13:03.442Z,101415.04
2018-08-11T22:15:32.109Z,101417.57
2018-08-11T22:18:00.687Z,101413.38
2018-08-11T22:20:29.678Z,101422.27
2018-08-11T22:22:58.168Z,101423.29
2018-08-11T22:25:26.684Z,101412.95
2018-08-11T22:27:55.188Z,101416.30
2018-08-11T22:30:23.705Z,101408.53
2018-08-11T22:32:52.288Z,101400.69
2018-08-11T22:35:20.865Z,101399.42
2018-08-11T22:37:49.362Z,101397.55
2018-08-11T22:40:17.890Z,101394.21
2018-08-11T22:42:46.373Z,101394.48
2018-08-11T22:45:14.857Z,101385.14
2018-08-11T22:47:43.393Z,101386.37
2018-08-11T22:50:13.679Z,101385.80
2018-08-11T22:52:42.405Z,101380.92
2018-08-11T22:55:10.909Z,101379.59
2018-08-11T22:57:39.488Z,101377.59
2018-08-11T23:00:17.674Z,101373.91
2018-08-11T23:02:46.389Z,101369.89
2018-08-11T23:05:15.424Z,101372.32
2018-08-11T23:07:44.119Z,101366.71
2018-08-11T23:10:13.880Z,101359.93
2018-08-11T23:12:43.373Z,101364.81
2018-08-11T23:15:15.272Z,101360.08
2018-08-11T23:17:45.413Z,101358.53
2018-08-11T23:20:14.433Z,101353.59
2018-08-11T23:22:43.044Z,101347.66
2018-08-11T23:25:11.944Z,101348.98
2018-08-11T23:27:40.629Z,101348.80
2018-08-11T23:30:12.054Z,101345.99
2018-08-11T23:32:41.222Z,101349.17
2018-08-11T23:35:09.937Z,101350.49
2018-08-11T23:37:38.817Z,101348.56
2018-08-11T23:40:08.260Z,101343.45
2018-08-11T23:42:37.096Z,101335.68
2018-08-11T23:45:08.576Z,101331.63
2018-08-11T23:47:37.279Z,101331.72
2018-08-11T23:50:06.837Z,101331.57
2018-08-11T23:52:35.328Z,101327.52
2018-08-11T23:55:04.757Z,101330.00
2018-08-11T23:57:33.345Z,101325.57
